Terminal Aerodrome Forecast
Issued by NWS

Home | Current Version | Previous Version | Text Only | Print | Product List | Glossary On
Versions: 1 2 3 4 5 6 7 8 9 10 11 12 13 14 15 16 17 18 19 20 21 22 23 24 25 26 27 28 29 30 31 32 33 34 35
000
FTUS42 KGSP 281159 CCA
TAFHKY
TAF COR
KHKY 281159Z 2812/2912 00000KT 6SM BR FEW005 BKN250
     FM281400 20003KT P6SM SCT015 OVC020
     FM281600 21004KT P6SM VCSH BKN025
     FM281800 19005KT P6SM BKN040 PROB30 2821/2901 4SM TSRA
      BKN030CB=

USA.gov is the U.S. government's official web portal to all federal, state and local government web resources and services.